sensor_id;sensor_type;location;lat;lon;timestamp;pressure;altitude;pressure_sealevel;temperature;humidity
49645;BME280;36494;50.730;-1.932;2023-01-16T00:02:15;97916.42;;;4.53;100.00
49645;BME280;36494;50.730;-1.932;2023-01-16T00:04:41;97900.04;;;4.53;100.00
49645;BME280;36494;50.730;-1.932;2023-01-16T00:07:06;97882.48;;;4.46;100.00
49645;BME280;36494;50.730;-1.932;2023-01-16T00:09:31;97865.89;;;4.52;100.00
49645;BME280;36494;50.730;-1.932;2023-01-16T00:11:57;97851.98;;;4.54;100.00
49645;BME280;36494;50.730;-1.932;2023-01-16T00:14:22;97837.10;;;4.51;100.00
49645;BME280;36494;50.730;-1.932;2023-01-16T00:16:48;97822.22;;;4.41;100.00
49645;BME280;36494;50.730;-1.932;2023-01-16T00:19:13;97806.69;;;4.45;100.00
49645;BME280;36494;50.730;-1.932;2023-01-16T00:21:38;97785.70;;;4.51;100.00
49645;BME280;36494;50.730;-1.932;2023-01-16T00:24:05;97771.34;;;4.54;100.00
49645;BME280;36494;50.730;-1.932;2023-01-16T00:26:30;97758.72;;;4.57;100.00
49645;BME280;36494;50.730;-1.932;2023-01-16T00:28:55;97737.66;;;4.51;100.00
49645;BME280;36494;50.730;-1.932;2023-01-16T00:31:20;97723.56;;;4.53;100.00
49645;BME280;36494;50.730;-1.932;2023-01-16T00:33:45;97699.93;;;4.59;100.00
49645;BME280;36494;50.730;-1.932;2023-01-16T00:36:12;97690.25;;;4.52;100.00
49645;BME280;36494;50.730;-1.932;2023-01-16T00:38:36;97676.57;;;4.56;100.00
49645;BME280;36494;50.730;-1.932;2023-01-16T00:41:01;97654.99;;;4.54;100.00
49645;BME280;36494;50.730;-1.932;2023-01-16T00:43:26;97641.29;;;4.51;100.00
49645;BME280;36494;50.730;-1.932;2023-01-16T00:45:52;97628.21;;;4.51;100.00
49645;BME280;36494;50.730;-1.932;2023-01-16T00:48:17;97611.11;;;4.46;100.00
49645;BME280;36494;50.730;-1.932;2023-01-16T00:50:43;97594.13;;;4.55;100.00
49645;BME280;36494;50.730;-1.932;2023-01-16T00:53:08;97587.79;;;4.47;100.00
49645;BME280;36494;50.730;-1.932;2023-01-16T00:55:33;97570.84;;;4.38;100.00
49645;BME280;36494;50.730;-1.932;2023-01-16T00:57:59;97558.45;;;4.44;100.00
49645;BME280;36494;50.730;-1.932;2023-01-16T01:00:24;97545.66;;;4.41;100.00
49645;BME280;36494;50.730;-1.932;2023-01-16T01:02:50;97532.56;;;4.39;100.00
49645;BME280;36494;50.730;-1.932;2023-01-16T01:05:15;97523.00;;;4.40;100.00
49645;BME280;36494;50.730;-1.932;2023-01-16T01:07:41;97508.36;;;4.28;100.00
49645;BME280;36494;50.730;-1.932;2023-01-16T01:10:06;97495.56;;;4.24;100.00
49645;BME280;36494;50.730;-1.932;2023-01-16T01:12:31;97481.35;;;4.20;100.00
49645;BME280;36494;50.730;-1.932;2023-01-16T01:14:57;97461.87;;;4.19;100.00
49645;BME280;36494;50.730;-1.932;2023-01-16T01:17:23;97442.75;;;4.25;100.00
49645;BME280;36494;50.730;-1.932;2023-01-16T01:19:48;97423.86;;;4.21;100.00
49645;BME280;36494;50.730;-1.932;2023-01-16T01:22:14;97415.30;;;4.13;100.00
49645;BME280;36494;50.730;-1.932;2023-01-16T01:24:38;97413.49;;;4.09;100.00
49645;BME280;36494;50.730;-1.932;2023-01-16T01:27:03;97409.26;;;4.07;100.00
49645;BME280;36494;50.730;-1.932;2023-01-16T01:29:29;97418.93;;;4.07;100.00
49645;BME280;36494;50.730;-1.932;2023-01-16T01:31:54;97400.96;;;4.01;100.00
49645;BME280;36494;50.730;-1.932;2023-01-16T01:34:19;97395.16;;;3.99;100.00
49645;BME280;36494;50.730;-1.932;2023-01-16T01:36:45;97381.22;;;3.97;100.00
49645;BME280;36494;50.730;-1.932;2023-01-16T01:39:11;97366.10;;;3.94;100.00
49645;BME280;36494;50.730;-1.932;2023-01-16T01:41:36;97347.45;;;3.95;100.00
49645;BME280;36494;50.730;-1.932;2023-01-16T01:44:01;97349.40;;;3.94;100.00
49645;BME280;36494;50.730;-1.932;2023-01-16T01:46:30;97360.16;;;3.91;100.00
49645;BME280;36494;50.730;-1.932;2023-01-16T01:48:56;97368.47;;;3.84;100.00
49645;BME280;36494;50.730;-1.932;2023-01-16T01:51:19;97370.56;;;3.77;100.00
49645;BME280;36494;50.730;-1.932;2023-01-16T01:53:46;97360.05;;;3.78;100.00
49645;BME280;36494;50.730;-1.932;2023-01-16T01:56:12;97341.18;;;3.70;100.00
49645;BME280;36494;50.730;-1.932;2023-01-16T01:58:35;97346.59;;;3.66;100.00
49645;BME280;36494;50.730;-1.932;2023-01-16T02:00:59;97346.27;;;3.65;100.00
49645;BME280;36494;50.730;-1.932;2023-01-16T02:03:28;97337.81;;;3.58;100.00
49645;BME280;36494;50.730;-1.932;2023-01-16T02:05:50;97345.74;;;3.39;100.00
49645;BME280;36494;50.730;-1.932;2023-01-16T02:08:18;97342.95;;;3.34;100.00
49645;BME280;36494;50.730;-1.932;2023-01-16T02:10:44;97348.48;;;3.26;100.00
49645;BME280;36494;50.730;-1.932;2023-01-16T02:13:06;97360.20;;;3.19;100.00
49645;BME280;36494;50.730;-1.932;2023-01-16T02:15:33;97371.14;;;3.15;100.00
49645;BME280;36494;50.730;-1.932;2023-01-16T02:17:57;97377.29;;;3.08;100.00
49645;BME280;36494;50.730;-1.932;2023-01-16T02:20:24;97376.23;;;3.08;100.00
49645;BME280;36494;50.730;-1.932;2023-01-16T02:25:28;97380.73;;;2.94;100.00
49645;BME280;36494;50.730;-1.932;2023-01-16T02:27:57;97388.64;;;2.81;100.00
49645;BME280;36494;50.730;-1.932;2023-01-16T02:30:14;97401.42;;;2.74;100.00
49645;BME280;36494;50.730;-1.932;2023-01-16T02:32:42;97401.16;;;2.69;100.00
49645;BME280;36494;50.730;-1.932;2023-01-16T02:35:06;97410.16;;;2.61;100.00
49645;BME280;36494;50.730;-1.932;2023-01-16T02:37:27;97414.98;;;2.47;100.00
49645;BME280;36494;50.730;-1.932;2023-01-16T02:39:54;97417.43;;;2.48;100.00
49645;BME280;36494;50.730;-1.932;2023-01-16T02:42:18;97423.09;;;2.48;100.00
49645;BME280;36494;50.730;-1.932;2023-01-16T02:44:45;97432.67;;;2.27;100.00
49645;BME280;36494;50.730;-1.932;2023-01-16T02:47:09;97437.32;;;2.16;100.00
49645;BME280;36494;50.730;-1.932;2023-01-16T02:49:31;97452.00;;;2.06;100.00
49645;BME280;36494;50.730;-1.932;2023-01-16T02:51:57;97459.62;;;1.93;100.00
49645;BME280;36494;50.730;-1.932;2023-01-16T02:54:24;97454.23;;;1.88;100.00
49645;BME280;36494;50.730;-1.932;2023-01-16T02:56:48;97465.08;;;1.68;100.00
49645;BME280;36494;50.730;-1.932;2023-01-16T02:59:11;97474.71;;;1.62;100.00
49645;BME280;36494;50.730;-1.932;2023-01-16T03:01:36;97474.43;;;1.49;100.00
49645;BME280;36494;50.730;-1.932;2023-01-16T03:04:04;97490.26;;;1.43;100.00
49645;BME280;36494;50.730;-1.932;2023-01-16T03:06:37;97487.81;;;1.35;100.00
49645;BME280;36494;50.730;-1.932;2023-01-16T03:08:59;97486.96;;;1.31;100.00
49645;BME280;36494;50.730;-1.932;2023-01-16T03:11:19;97491.54;;;1.20;100.00
49645;BME280;36494;50.730;-1.932;2023-01-16T03:13:53;97498.40;;;1.17;100.00
49645;BME280;36494;50.730;-1.932;2023-01-16T03:16:17;97514.43;;;1.14;100.00
49645;BME280;36494;50.730;-1.932;2023-01-16T03:18:40;97520.30;;;1.04;100.00
49645;BME280;36494;50.730;-1.932;2023-01-16T03:21:04;97518.12;;;0.96;100.00
49645;BME280;36494;50.730;-1.932;2023-01-16T03:23:31;97527.48;;;1.02;100.00
49645;BME280;36494;50.730;-1.932;2023-01-16T03:25:55;97530.98;;;0.97;100.00
49645;BME280;36494;50.730;-1.932;2023-01-16T03:28:20;97543.99;;;1.04;100.00
49645;BME280;36494;50.730;-1.932;2023-01-16T03:30:49;97551.37;;;1.07;100.00
49645;BME280;36494;50.730;-1.932;2023-01-16T03:33:11;97560.47;;;1.08;100.00
49645;BME280;36494;50.730;-1.932;2023-01-16T03:35:36;97561.50;;;1.10;100.00
49645;BME280;36494;50.730;-1.932;2023-01-16T03:38:02;97573.02;;;1.07;100.00
49645;BME280;36494;50.730;-1.932;2023-01-16T03:40:27;97582.78;;;1.07;100.00
49645;BME280;36494;50.730;-1.932;2023-01-16T03:42:54;97589.82;;;1.09;100.00
49645;BME280;36494;50.730;-1.932;2023-01-16T03:45:19;97606.97;;;1.11;100.00
49645;BME280;36494;50.730;-1.932;2023-01-16T03:47:46;97607.83;;;1.16;100.00
49645;BME280;36494;50.730;-1.932;2023-01-16T03:50:09;97624.64;;;1.17;100.00
49645;BME280;36494;50.730;-1.932;2023-01-16T03:52:35;97635.19;;;1.22;100.00
49645;BME280;36494;50.730;-1.932;2023-01-16T03:55:05;97644.46;;;1.23;100.00
49645;BME280;36494;50.730;-1.932;2023-01-16T03:57:26;97637.31;;;1.20;100.00
49645;BME280;36494;50.730;-1.932;2023-01-16T03:59:48;97651.20;;;1.21;100.00
49645;BME280;36494;50.730;-1.932;2023-01-16T04:02:16;97643.62;;;1.28;100.00
49645;BME280;36494;50.730;-1.932;2023-01-16T04:04:41;97643.66;;;1.32;100.00
49645;BME280;36494;50.730;-1.932;2023-01-16T04:07:08;97647.80;;;1.38;100.00
49645;BME280;36494;50.730;-1.932;2023-01-16T04:09:35;97659.76;;;1.45;100.00
49645;BME280;36494;50.730;-1.932;2023-01-16T04:11:56;97671.85;;;1.53;100.00
49645;BME280;36494;50.730;-1.932;2023-01-16T04:14:22;97687.80;;;1.60;100.00
49645;BME280;36494;50.730;-1.932;2023-01-16T04:16:46;97685.87;;;1.65;100.00
49645;BME280;36494;50.730;-1.932;2023-01-16T04:19:13;97695.20;;;1.69;100.00
49645;BME280;36494;50.730;-1.932;2023-01-16T04:21:37;97702.61;;;1.74;100.00
49645;BME280;36494;50.730;-1.932;2023-01-16T04:24:03;97708.81;;;1.77;100.00
49645;BME280;36494;50.730;-1.932;2023-01-16T04:26:28;97720.51;;;1.86;100.00
49645;BME280;36494;50.730;-1.932;2023-01-16T04:28:53;97733.97;;;1.92;100.00
49645;BME280;36494;50.730;-1.932;2023-01-16T04:31:19;97742.77;;;1.96;100.00
49645;BME280;36494;50.730;-1.932;2023-01-16T04:33:44;97745.41;;;2.04;100.00
49645;BME280;36494;50.730;-1.932;2023-01-16T04:36:10;97752.39;;;2.12;100.00
49645;BME280;36494;50.730;-1.932;2023-01-16T04:38:35;97756.98;;;2.12;100.00
49645;BME280;36494;50.730;-1.932;2023-01-16T04:41:01;97756.14;;;2.22;100.00
49645;BME280;36494;50.730;-1.932;2023-01-16T04:43:26;97748.19;;;2.27;100.00
49645;BME280;36494;50.730;-1.932;2023-01-16T04:45:51;97754.10;;;2.29;100.00
49645;BME280;36494;50.730;-1.932;2023-01-16T04:48:17;97754.32;;;2.41;100.00
49645;BME280;36494;50.730;-1.932;2023-01-16T04:50:42;97760.93;;;2.47;100.00
49645;BME280;36494;50.730;-1.932;2023-01-16T04:53:08;97766.82;;;2.49;100.00
49645;BME280;36494;50.730;-1.932;2023-01-16T04:55:33;97780.45;;;2.51;100.00
49645;BME280;36494;50.730;-1.932;2023-01-16T04:57:59;97778.53;;;2.57;100.00
49645;BME280;36494;50.730;-1.932;2023-01-16T05:00:24;97782.71;;;2.59;100.00
49645;BME280;36494;50.730;-1.932;2023-01-16T05:02:50;97796.03;;;2.66;100.00
49645;BME280;36494;50.730;-1.932;2023-01-16T05:05:15;97799.79;;;2.69;100.00
49645;BME280;36494;50.730;-1.932;2023-01-16T05:07:41;97811.79;;;2.70;100.00
49645;BME280;36494;50.730;-1.932;2023-01-16T05:10:07;97820.12;;;2.76;100.00
49645;BME280;36494;50.730;-1.932;2023-01-16T05:12:31;97831.17;;;2.77;100.00
49645;BME280;36494;50.730;-1.932;2023-01-16T05:14:57;97831.50;;;2.77;100.00
49645;BME280;36494;50.730;-1.932;2023-01-16T05:17:22;97837.53;;;2.80;100.00
49645;BME280;36494;50.730;-1.932;2023-01-16T05:19:47;97844.18;;;2.82;100.00
49645;BME280;36494;50.730;-1.932;2023-01-16T05:22:13;97842.22;;;2.81;100.00
49645;BME280;36494;50.730;-1.932;2023-01-16T05:24:38;97848.82;;;2.82;100.00
49645;BME280;36494;50.730;-1.932;2023-01-16T05:27:04;97853.77;;;2.84;100.00
49645;BME280;36494;50.730;-1.932;2023-01-16T05:29:29;97864.73;;;2.89;100.00
49645;BME280;36494;50.730;-1.932;2023-01-16T05:31:54;97873.50;;;2.88;100.00
49645;BME280;36494;50.730;-1.932;2023-01-16T05:34:20;97872.62;;;2.86;100.00
49645;BME280;36494;50.730;-1.932;2023-01-16T05:36:46;97873.84;;;2.88;100.00
49645;BME280;36494;50.730;-1.932;2023-01-16T05:39:10;97878.27;;;2.87;100.00
49645;BME280;36494;50.730;-1.932;2023-01-16T05:41:36;97883.69;;;2.78;100.00
49645;BME280;36494;50.730;-1.932;2023-01-16T05:44:01;97898.68;;;2.86;100.00
49645;BME280;36494;50.730;-1.932;2023-01-16T05:46:27;97895.06;;;2.84;100.00
49645;BME280;36494;50.730;-1.932;2023-01-16T05:48:52;97903.77;;;2.85;100.00
49645;BME280;36494;50.730;-1.932;2023-01-16T05:51:18;97904.75;;;2.83;100.00
49645;BME280;36494;50.730;-1.932;2023-01-16T05:53:43;97907.96;;;2.88;100.00
49645;BME280;36494;50.730;-1.932;2023-01-16T05:56:10;97906.04;;;2.88;100.00
49645;BME280;36494;50.730;-1.932;2023-01-16T05:58:34;97900.48;;;2.85;100.00
49645;BME280;36494;50.730;-1.932;2023-01-16T06:00:59;97913.63;;;2.91;100.00
49645;BME280;36494;50.730;-1.932;2023-01-16T06:03:25;97908.41;;;2.83;100.00
49645;BME280;36494;50.730;-1.932;2023-01-16T06:05:50;97916.20;;;2.92;100.00
49645;BME280;36494;50.730;-1.932;2023-01-16T06:08:16;97926.33;;;2.97;100.00
49645;BME280;36494;50.730;-1.932;2023-01-16T06:10:41;97929.91;;;2.93;100.00
49645;BME280;36494;50.730;-1.932;2023-01-16T06:13:07;97936.51;;;2.92;100.00
49645;BME280;36494;50.730;-1.932;2023-01-16T06:15:32;97941.35;;;2.84;100.00
49645;BME280;36494;50.730;-1.932;2023-01-16T06:17:58;97951.92;;;2.91;100.00
49645;BME280;36494;50.730;-1.932;2023-01-16T06:20:24;97959.94;;;2.86;100.00
49645;BME280;36494;50.730;-1.932;2023-01-16T06:22:48;97957.32;;;2.79;100.00
49645;BME280;36494;50.730;-1.932;2023-01-16T06:25:14;97962.49;;;2.85;100.00
49645;BME280;36494;50.730;-1.932;2023-01-16T06:27:39;97962.15;;;2.80;100.00
49645;BME280;36494;50.730;-1.932;2023-01-16T06:30:06;97968.37;;;2.83;100.00
49645;BME280;36494;50.730;-1.932;2023-01-16T06:32:30;97979.63;;;2.77;100.00
49645;BME280;36494;50.730;-1.932;2023-01-16T06:34:55;97984.65;;;2.76;100.00
49645;BME280;36494;50.730;-1.932;2023-01-16T06:37:21;97995.55;;;2.84;100.00
49645;BME280;36494;50.730;-1.932;2023-01-16T06:39:46;97996.31;;;2.88;100.00
49645;BME280;36494;50.730;-1.932;2023-01-16T06:42:11;98001.00;;;2.87;100.00
49645;BME280;36494;50.730;-1.932;2023-01-16T06:44:37;98009.44;;;2.86;100.00
49645;BME280;36494;50.730;-1.932;2023-01-16T06:47:03;98012.01;;;2.87;100.00
49645;BME280;36494;50.730;-1.932;2023-01-16T06:49:28;98013.65;;;2.83;100.00
49645;BME280;36494;50.730;-1.932;2023-01-16T06:51:54;98019.01;;;2.86;100.00
49645;BME280;36494;50.730;-1.932;2023-01-16T06:54:20;98028.15;;;2.81;100.00
49645;BME280;36494;50.730;-1.932;2023-01-16T06:56:45;98023.89;;;2.87;100.00
49645;BME280;36494;50.730;-1.932;2023-01-16T06:59:10;98031.69;;;2.82;100.00
49645;BME280;36494;50.730;-1.932;2023-01-16T07:01:36;98039.18;;;2.77;100.00
49645;BME280;36494;50.730;-1.932;2023-01-16T07:04:01;98039.33;;;2.72;100.00
49645;BME280;36494;50.730;-1.932;2023-01-16T07:06:27;98044.06;;;2.67;100.00
49645;BME280;36494;50.730;-1.932;2023-01-16T07:08:52;98052.21;;;2.69;100.00
49645;BME280;36494;50.730;-1.932;2023-01-16T07:11:18;98065.80;;;2.71;100.00
49645;BME280;36494;50.730;-1.932;2023-01-16T07:13:44;98064.23;;;2.69;100.00
49645;BME280;36494;50.730;-1.932;2023-01-16T07:16:09;98068.52;;;2.65;100.00
49645;BME280;36494;50.730;-1.932;2023-01-16T07:18:34;98070.53;;;2.77;100.00
49645;BME280;36494;50.730;-1.932;2023-01-16T07:21:02;98072.65;;;2.68;100.00
49645;BME280;36494;50.730;-1.932;2023-01-16T07:23:26;98077.42;;;2.68;100.00
49645;BME280;36494;50.730;-1.932;2023-01-16T07:25:50;98082.53;;;2.69;100.00
49645;BME280;36494;50.730;-1.932;2023-01-16T07:28:16;98085.18;;;2.60;100.00
49645;BME280;36494;50.730;-1.932;2023-01-16T07:30:41;98090.78;;;2.60;100.00
49645;BME280;36494;50.730;-1.932;2023-01-16T07:33:06;98105.01;;;2.62;100.00
49645;BME280;36494;50.730;-1.932;2023-01-16T07:35:32;98111.67;;;2.59;100.00
49645;BME280;36494;50.730;-1.932;2023-01-16T07:37:57;98108.87;;;2.50;100.00
49645;BME280;36494;50.730;-1.932;2023-01-16T07:40:23;98112.52;;;2.53;100.00
49645;BME280;36494;50.730;-1.932;2023-01-16T07:42:49;98109.73;;;2.48;100.00
49645;BME280;36494;50.730;-1.932;2023-01-16T07:45:14;98112.38;;;2.46;100.00
49645;BME280;36494;50.730;-1.932;2023-01-16T07:47:39;98117.83;;;2.49;100.00
49645;BME280;36494;50.730;-1.932;2023-01-16T07:50:05;98119.44;;;2.45;100.00
49645;BME280;36494;50.730;-1.932;2023-01-16T07:52:30;98121.00;;;2.41;100.00
49645;BME280;36494;50.730;-1.932;2023-01-16T07:54:55;98123.17;;;2.43;100.00
49645;BME280;36494;50.730;-1.932;2023-01-16T07:57:21;98130.43;;;2.48;100.00
49645;BME280;36494;50.730;-1.932;2023-01-16T07:59:46;98127.69;;;2.49;100.00
49645;BME280;36494;50.730;-1.932;2023-01-16T08:02:12;98133.90;;;2.46;100.00
49645;BME280;36494;50.730;-1.932;2023-01-16T08:04:37;98134.56;;;2.45;100.00
49645;BME280;36494;50.730;-1.932;2023-01-16T08:07:03;98148.20;;;2.50;100.00
49645;BME280;36494;50.730;-1.932;2023-01-16T08:09:28;98159.09;;;2.52;100.00
49645;BME280;36494;50.730;-1.932;2023-01-16T08:11:54;98166.05;;;2.54;100.00
49645;BME280;36494;50.730;-1.932;2023-01-16T08:14:19;98169.94;;;2.52;100.00
49645;BME280;36494;50.730;-1.932;2023-01-16T08:16:44;98171.01;;;2.55;100.00
49645;BME280;36494;50.730;-1.932;2023-01-16T08:19:10;98173.07;;;2.53;100.00
49645;BME280;36494;50.730;-1.932;2023-01-16T08:21:35;98180.04;;;2.53;100.00
49645;BME280;36494;50.730;-1.932;2023-01-16T08:24:01;98177.60;;;2.60;100.00
49645;BME280;36494;50.730;-1.932;2023-01-16T08:26:26;98184.89;;;2.66;100.00
49645;BME280;36494;50.730;-1.932;2023-01-16T08:28:52;98190.30;;;2.62;100.00
49645;BME280;36494;50.730;-1.932;2023-01-16T08:31:17;98194.85;;;2.66;100.00
49645;BME280;36494;50.730;-1.932;2023-01-16T08:33:43;98197.18;;;2.76;100.00
49645;BME280;36494;50.730;-1.932;2023-01-16T08:36:11;98199.96;;;2.72;100.00
49645;BME280;36494;50.730;-1.932;2023-01-16T08:38:34;98198.31;;;2.82;100.00
49645;BME280;36494;50.730;-1.932;2023-01-16T08:40:59;98200.83;;;2.70;100.00
49645;BME280;36494;50.730;-1.932;2023-01-16T08:43:25;98210.58;;;2.79;100.00
49645;BME280;36494;50.730;-1.932;2023-01-16T08:45:50;98218.11;;;2.78;100.00
49645;BME280;36494;50.730;-1.932;2023-01-16T08:48:19;98224.27;;;2.77;100.00
49645;BME280;36494;50.730;-1.932;2023-01-16T08:50:41;98239.09;;;2.80;100.00
49645;BME280;36494;50.730;-1.932;2023-01-16T08:53:06;98245.47;;;2.80;100.00
49645;BME280;36494;50.730;-1.932;2023-01-16T08:55:32;98253.25;;;2.83;100.00
49645;BME280;36494;50.730;-1.932;2023-01-16T08:57:57;98254.49;;;2.85;100.00
49645;BME280;36494;50.730;-1.932;2023-01-16T09:00:23;98253.82;;;2.81;100.00
49645;BME280;36494;50.730;-1.932;2023-01-16T09:02:48;98254.13;;;2.85;100.00
49645;BME280;36494;50.730;-1.932;2023-01-16T09:05:14;98260.84;;;2.81;100.00
49645;BME280;36494;50.730;-1.932;2023-01-16T09:07:39;98263.87;;;2.88;100.00
49645;BME280;36494;50.730;-1.932;2023-01-16T09:10:06;98275.65;;;2.89;100.00
49645;BME280;36494;50.730;-1.932;2023-01-16T09:12:30;98276.47;;;2.85;100.00
49645;BME280;36494;50.730;-1.932;2023-01-16T09:14:56;98278.96;;;2.84;100.00
49645;BME280;36494;50.730;-1.932;2023-01-16T09:17:21;98281.74;;;2.85;100.00
49645;BME280;36494;50.730;-1.932;2023-01-16T09:19:46;98287.03;;;2.86;100.00
49645;BME280;36494;50.730;-1.932;2023-01-16T09:22:12;98293.99;;;2.89;100.00
49645;BME280;36494;50.730;-1.932;2023-01-16T09:24:37;98298.25;;;2.88;100.00
49645;BME280;36494;50.730;-1.932;2023-01-16T09:27:03;98302.95;;;2.88;100.00
49645;BME280;36494;50.730;-1.932;2023-01-16T09:29:28;98306.10;;;2.95;100.00
49645;BME280;36494;50.730;-1.932;2023-01-16T09:31:54;98310.13;;;2.95;100.00
49645;BME280;36494;50.730;-1.932;2023-01-16T09:34:19;98307.83;;;2.91;100.00
49645;BME280;36494;50.730;-1.932;2023-01-16T09:36:44;98313.33;;;2.96;100.00
49645;BME280;36494;50.730;-1.932;2023-01-16T09:39:10;98314.32;;;2.99;100.00
49645;BME280;36494;50.730;-1.932;2023-01-16T09:41:39;98316.22;;;3.02;100.00
49645;BME280;36494;50.730;-1.932;2023-01-16T09:44:02;98321.32;;;3.05;100.00
49645;BME280;36494;50.730;-1.932;2023-01-16T09:46:27;98321.05;;;3.07;100.00
49645;BME280;36494;50.730;-1.932;2023-01-16T09:48:54;98321.69;;;3.12;100.00
49645;BME280;36494;50.730;-1.932;2023-01-16T09:51:21;98326.67;;;3.20;100.00
49645;BME280;36494;50.730;-1.932;2023-01-16T09:53:47;98333.62;;;3.24;100.00
49645;BME280;36494;50.730;-1.932;2023-01-16T09:56:10;98331.64;;;3.31;100.00
49645;BME280;36494;50.730;-1.932;2023-01-16T09:58:37;98331.87;;;3.37;100.00
49645;BME280;36494;50.730;-1.932;2023-01-16T10:00:59;98337.00;;;3.42;100.00
49645;BME280;36494;50.730;-1.932;2023-01-16T10:03:24;98337.33;;;3.45;100.00
49645;BME280;36494;50.730;-1.932;2023-01-16T10:05:57;98339.52;;;3.46;100.00
49645;BME280;36494;50.730;-1.932;2023-01-16T10:08:21;98351.45;;;3.50;100.00
49645;BME280;36494;50.730;-1.932;2023-01-16T10:10:43;98343.64;;;3.52;100.00
49645;BME280;36494;50.730;-1.932;2023-01-16T10:13:20;98347.17;;;3.55;100.00
49645;BME280;36494;50.730;-1.932;2023-01-16T10:15:37;98344.79;;;3.57;100.00
49645;BME280;36494;50.730;-1.932;2023-01-16T10:18:07;98351.04;;;3.59;100.00
49645;BME280;36494;50.730;-1.932;2023-01-16T10:20:33;98356.09;;;3.57;100.00
49645;BME280;36494;50.730;-1.932;2023-01-16T10:22:57;98351.45;;;3.56;100.00
49645;BME280;36494;50.730;-1.932;2023-01-16T10:25:19;98361.64;;;3.57;100.00
49645;BME280;36494;50.730;-1.932;2023-01-16T10:27:46;98360.60;;;3.61;100.00
49645;BME280;36494;50.730;-1.932;2023-01-16T10:30:10;98360.59;;;3.60;100.00
49645;BME280;36494;50.730;-1.932;2023-01-16T10:32:32;98359.61;;;3.68;100.00
49645;BME280;36494;50.730;-1.932;2023-01-16T10:35:01;98367.98;;;3.65;100.00
49645;BME280;36494;50.730;-1.932;2023-01-16T10:37:21;98378.36;;;3.70;100.00
49645;BME280;36494;50.730;-1.932;2023-01-16T10:39:47;98377.54;;;3.76;100.00
49645;BME280;36494;50.730;-1.932;2023-01-16T10:42:14;98380.69;;;3.77;100.00
49645;BME280;36494;50.730;-1.932;2023-01-16T10:44:38;98380.35;;;3.80;100.00
49645;BME280;36494;50.730;-1.932;2023-01-16T10:47:03;98380.56;;;3.89;100.00
49645;BME280;36494;50.730;-1.932;2023-01-16T10:49:28;98383.09;;;3.94;100.00
49645;BME280;36494;50.730;-1.932;2023-01-16T10:51:55;98378.57;;;3.93;100.00
49645;BME280;36494;50.730;-1.932;2023-01-16T10:54:19;98386.44;;;3.98;100.00
49645;BME280;36494;50.730;-1.932;2023-01-16T10:56:44;98384.96;;;3.98;100.00
49645;BME280;36494;50.730;-1.932;2023-01-16T10:59:11;98387.38;;;4.04;100.00
49645;BME280;36494;50.730;-1.932;2023-01-16T11:01:36;98381.67;;;4.02;100.00
49645;BME280;36494;50.730;-1.932;2023-01-16T11:04:01;98394.41;;;4.05;100.00
49645;BME280;36494;50.730;-1.932;2023-01-16T11:06:27;98391.00;;;4.00;100.00
49645;BME280;36494;50.730;-1.932;2023-01-16T11:08:53;98391.59;;;4.04;100.00
49645;BME280;36494;50.730;-1.932;2023-01-16T11:11:17;98391.48;;;4.06;100.00
49645;BME280;36494;50.730;-1.932;2023-01-16T11:13:43;98392.96;;;4.11;100.00
49645;BME280;36494;50.730;-1.932;2023-01-16T11:16:18;98389.98;;;4.11;100.00
49645;BME280;36494;50.730;-1.932;2023-01-16T11:18:35;98392.53;;;4.17;100.00
49645;BME280;36494;50.730;-1.932;2023-01-16T11:21:00;98392.31;;;4.17;100.00
49645;BME280;36494;50.730;-1.932;2023-01-16T11:23:26;98381.53;;;4.26;100.00
49645;BME280;36494;50.730;-1.932;2023-01-16T11:25:51;98396.78;;;4.26;100.00
49645;BME280;36494;50.730;-1.932;2023-01-16T11:28:19;98386.54;;;4.31;100.00
49645;BME280;36494;50.730;-1.932;2023-01-16T11:30:43;98385.85;;;4.32;100.00
49645;BME280;36494;50.730;-1.932;2023-01-16T11:33:12;98391.31;;;4.40;100.00
49645;BME280;36494;50.730;-1.932;2023-01-16T11:35:33;98390.48;;;4.43;100.00
49645;BME280;36494;50.730;-1.932;2023-01-16T11:37:57;98379.65;;;4.51;100.00
49645;BME280;36494;50.730;-1.932;2023-01-16T11:40:24;98384.21;;;4.58;100.00
49645;BME280;36494;50.730;-1.932;2023-01-16T11:42:52;98384.55;;;4.63;100.00
49645;BME280;36494;50.730;-1.932;2023-01-16T11:45:15;98378.96;;;4.68;100.00
49645;BME280;36494;50.730;-1.932;2023-01-16T11:47:40;98382.59;;;4.64;100.00
49645;BME280;36494;50.730;-1.932;2023-01-16T11:52:34;98379.42;;;4.66;100.00
49645;BME280;36494;50.730;-1.932;2023-01-16T11:54:55;98379.12;;;4.71;100.00
49645;BME280;36494;50.730;-1.932;2023-01-16T11:57:29;98378.12;;;4.68;100.00
49645;BME280;36494;50.730;-1.932;2023-01-16T12:02:21;98385.42;;;4.66;100.00
49645;BME280;36494;50.730;-1.932;2023-01-16T12:04:38;98387.43;;;4.60;100.00
49645;BME280;36494;50.730;-1.932;2023-01-16T12:07:07;98388.91;;;4.64;100.00
49645;BME280;36494;50.730;-1.932;2023-01-16T12:09:37;98394.34;;;4.73;100.00
49645;BME280;36494;50.730;-1.932;2023-01-16T12:12:07;98396.99;;;4.75;100.00
49645;BME280;36494;50.730;-1.932;2023-01-16T12:14:23;98397.54;;;4.73;100.00
49645;BME280;36494;50.730;-1.932;2023-01-16T12:16:53;98400.28;;;4.80;100.00
49645;BME280;36494;50.730;-1.932;2023-01-16T12:19:23;98392.55;;;4.86;100.00
49645;BME280;36494;50.730;-1.932;2023-01-16T12:21:38;98405.80;;;4.91;100.00
49645;BME280;36494;50.730;-1.932;2023-01-16T12:24:10;98409.11;;;4.85;100.00
49645;BME280;36494;50.730;-1.932;2023-01-16T12:26:27;98404.61;;;4.80;100.00
49645;BME280;36494;50.730;-1.932;2023-01-16T12:29:01;98393.23;;;4.84;100.00
49645;BME280;36494;50.730;-1.932;2023-01-16T12:31:26;98398.28;;;4.95;100.00
49645;BME280;36494;50.730;-1.932;2023-01-16T12:33:45;98397.15;;;5.05;100.00
49645;BME280;36494;50.730;-1.932;2023-01-16T12:36:13;98399.74;;;4.98;100.00
49645;BME280;36494;50.730;-1.932;2023-01-16T12:38:36;98397.46;;;5.02;100.00
49645;BME280;36494;50.730;-1.932;2023-01-16T12:41:12;98395.84;;;4.98;100.00
49645;BME280;36494;50.730;-1.932;2023-01-16T12:43:27;98396.03;;;4.99;100.00
49645;BME280;36494;50.730;-1.932;2023-01-16T12:45:50;98401.70;;;5.18;100.00
49645;BME280;36494;50.730;-1.932;2023-01-16T12:48:25;98404.66;;;5.58;100.00